Time;durP1;ratioP1;P1;durP2;ratioP2;P2;SDS_P1;SDS_P2;PMS_P1;PMS_P2;Temp;Humidity;BMP_temperature;BMP_pressure;BME280_temperature;BME280_humidity;BME280_pressure;Samples;Min_cycle;Max_cycle;Signal;HPM_P1;HPM_P2
2023/06/14 00:02:15;;;;;;;8.70;2.70;;;;;;;11.20;68.02;100316.39;110251;1267;22231;-57
2023/06/14 00:04:48;;;;;;;11.60;3.30;;;;;;;11.18;68.15;100314.84;110274;1263;22314;-60
2023/06/14 00:07:19;;;;;;;11.70;3.40;;;;;;;11.14;68.21;100315.17;110262;1264;22185;-58
2023/06/14 00:09:53;;;;;;;12.40;2.60;;;;;;;11.09;68.31;100312.91;110263;1272;22225;-59
2023/06/14 00:12:24;;;;;;;11.60;3.00;;;;;;;11.06;68.45;100313.09;110257;1272;22979;-59
2023/06/14 00:14:55;;;;;;;9.60;2.40;;;;;;;11.02;68.67;100315.36;110209;1271;22433;-57
2023/06/14 00:17:30;;;;;;;9.30;2.90;;;;;;;11.00;68.62;100314.26;110267;1271;22908;-61
2023/06/14 00:20:03;;;;;;;11.20;3.40;;;;;;;11.02;68.70;100316.73;110117;1273;22185;-60
2023/06/14 00:22:36;;;;;;;11.60;2.60;;;;;;;11.02;69.13;100315.77;110287;1271;22348;-60
2023/06/14 00:25:08;;;;;;;10.20;2.90;;;;;;;10.97;69.08;100318.25;110293;1278;22413;-63
2023/06/14 00:27:39;;;;;;;8.70;2.80;;;;;;;10.96;69.17;100323.73;110290;1278;23114;-58
2023/06/14 00:30:12;;;;;;;11.90;2.70;;;;;;;10.96;69.37;100322.86;110226;1271;22227;-59
2023/06/14 00:32:43;;;;;;;10.90;2.80;;;;;;;10.93;69.65;100324.55;110240;1266;22240;-59
2023/06/14 00:35:35;;;;;;;8.20;2.70;;;;;;;10.87;69.97;100323.46;110267;1274;22202;-59
2023/06/14 00:38:06;;;;;;;12.80;2.50;;;;;;;10.82;70.27;100322.98;110225;1271;22935;-59
2023/06/14 00:40:37;;;;;;;11.40;3.40;;;;;;;10.79;70.16;100323.46;110252;1267;22315;-57
2023/06/14 00:43:08;;;;;;;11.80;3.20;;;;;;;10.81;70.26;100328.07;110272;1272;22350;-61
2023/06/14 00:45:39;;;;;;;11.80;2.80;;;;;;;10.80;70.32;100329.37;110252;1271;22196;-60
2023/06/14 00:48:12;;;;;;;11.00;2.50;;;;;;;10.78;70.66;100326.08;110282;1267;22601;-59
2023/06/14 00:50:45;;;;;;;10.80;2.80;;;;;;;10.73;70.67;100326.33;110295;1267;22163;-59
2023/06/14 00:53:18;;;;;;;12.10;3.00;;;;;;;10.72;70.74;100328.23;110067;1273;23218;-60
2023/06/14 00:55:49;;;;;;;11.90;3.10;;;;;;;10.69;70.95;100327.51;110276;1265;22211;-61
2023/06/14 00:58:20;;;;;;;10.30;3.10;;;;;;;10.69;70.96;100325.44;110243;1263;22457;-60
2023/06/14 01:00:52;;;;;;;8.30;2.10;;;;;;;10.65;71.16;100330.12;110196;1278;23126;-59
2023/06/14 01:03:33;;;;;;;11.50;3.30;;;;;;;10.58;71.56;100329.98;110242;1264;22166;-61
2023/06/14 01:06:14;;;;;;;7.20;2.20;;;;;;;10.49;71.74;100329.72;110098;1273;22136;-60
2023/06/14 01:08:52;;;;;;;8.90;3.10;;;;;;;10.45;71.81;100332.52;110261;1274;22224;-58
2023/06/14 01:11:29;;;;;;;9.50;2.70;;;;;;;10.43;72.13;100330.44;110246;1271;22251;-59
2023/06/14 01:14:03;;;;;;;7.30;2.30;;;;;;;10.39;72.23;100333.60;110251;1267;22200;-58
2023/06/14 01:16:35;;;;;;;12.40;3.00;;;;;;;10.38;72.21;100326.54;110235;1267;22257;-58
2023/06/14 01:19:06;;;;;;;7.80;2.70;;;;;;;10.38;72.46;100330.54;110276;1264;22158;-59
2023/06/14 01:21:41;;;;;;;10.90;3.00;;;;;;;10.33;72.52;100330.35;110274;1278;22359;-58
2023/06/14 01:24:13;;;;;;;11.40;2.70;;;;;;;10.33;72.85;100331.06;110256;1270;22203;-59
2023/06/14 01:26:45;;;;;;;12.40;3.20;;;;;;;10.30;72.86;100332.45;110236;1266;23000;-58
2023/06/14 01:29:17;;;;;;;11.60;3.20;;;;;;;10.29;73.10;100329.08;110251;1271;22188;-58
2023/06/14 01:31:49;;;;;;;11.60;3.30;;;;;;;10.28;73.01;100328.45;110253;1271;22279;-59
2023/06/14 01:34:20;;;;;;;12.00;3.40;;;;;;;10.27;73.36;100324.29;110276;1263;22267;-59
2023/06/14 01:36:54;;;;;;;9.90;3.30;;;;;;;10.27;73.42;100325.19;110190;1278;22285;-60
2023/06/14 01:39:26;;;;;;;13.10;3.70;;;;;;;10.25;73.40;100320.98;110223;1271;23031;-60
2023/06/14 01:41:57;;;;;;;12.10;4.00;;;;;;;10.25;73.47;100321.63;110243;1271;22208;-56
2023/06/14 01:44:31;;;;;;;11.10;3.20;;;;;;;10.23;73.68;100319.97;110270;1266;22375;-55
2023/06/14 01:47:01;;;;;;;8.50;2.50;;;;;;;10.20;73.53;100322.56;110256;1271;22178;-61
2023/06/14 01:49:35;;;;;;;12.30;3.60;;;;;;;10.17;73.53;100325.93;110243;1271;22311;-59
2023/06/14 01:52:09;;;;;;;12.30;3.40;;;;;;;10.14;73.68;100326.57;110246;1271;22296;-59
2023/06/14 01:54:41;;;;;;;12.30;3.50;;;;;;;10.11;73.76;100326.94;110234;1278;22192;-58
2023/06/14 01:57:12;;;;;;;9.00;2.90;;;;;;;10.06;73.67;100329.16;110250;1267;22158;-59
2023/06/14 01:59:48;;;;;;;11.90;3.70;;;;;;;10.03;73.87;100325.64;110250;1271;22162;-58
2023/06/14 02:02:19;;;;;;;11.40;3.40;;;;;;;10.00;74.22;100321.16;110123;1267;23353;-60
2023/06/14 02:04:50;;;;;;;8.90;2.70;;;;;;;10.00;74.66;100320.79;110188;1272;22957;-60
2023/06/14 02:07:21;;;;;;;11.90;3.10;;;;;;;9.99;74.63;100316.56;110252;1264;22281;-60
2023/06/14 02:09:52;;;;;;;10.90;3.30;;;;;;;10.00;74.91;100319.83;110209;1267;22209;-58
2023/06/14 02:12:23;;;;;;;10.00;3.40;;;;;;;10.02;75.11;100319.94;110228;1271;22181;-60
2023/06/14 02:14:54;;;;;;;10.30;3.10;;;;;;;10.05;75.33;100321.08;110196;1271;22272;-58
2023/06/14 02:17:25;;;;;;;12.30;3.90;;;;;;;10.09;75.46;100319.99;110203;1274;22227;-59
2023/06/14 02:19:57;;;;;;;11.80;3.60;;;;;;;10.13;75.50;100319.04;110228;1272;22276;-59
2023/06/14 02:22:27;;;;;;;10.20;3.20;;;;;;;10.16;75.82;100316.48;110218;1265;22225;-61
2023/06/14 02:24:58;;;;;;;14.50;3.70;;;;;;;10.17;75.82;100313.16;110246;1266;22136;-58
2023/06/14 02:27:29;;;;;;;9.80;3.10;;;;;;;10.17;75.94;100314.52;110200;1267;22212;-59
2023/06/14 02:30:01;;;;;;;11.10;4.50;;;;;;;10.16;75.80;100311.00;110211;1274;22151;-58
2023/06/14 02:32:34;;;;;;;13.30;3.60;;;;;;;10.14;75.70;100316.03;110262;1270;23581;-59
2023/06/14 02:35:05;;;;;;;9.90;3.30;;;;;;;10.11;75.72;100309.81;110211;1271;22236;-58
2023/06/14 02:37:36;;;;;;;11.20;3.90;;;;;;;10.06;75.73;100308.67;110204;1267;23636;-57
2023/06/14 02:40:09;;;;;;;10.70;3.40;;;;;;;10.04;75.80;100308.38;110220;1270;22196;-62
2023/06/14 02:42:40;;;;;;;11.60;3.10;;;;;;;9.99;75.69;100312.77;110214;1278;22325;-55
2023/06/14 02:45:12;;;;;;;10.40;3.20;;;;;;;9.89;75.35;100317.91;110206;1267;22153;-58
2023/06/14 02:47:43;;;;;;;10.40;3.10;;;;;;;9.86;75.66;100320.48;110186;1264;22254;-59
2023/06/14 02:50:14;;;;;;;9.80;3.40;;;;;;;9.84;75.92;100323.95;110221;1265;22262;-60
2023/06/14 02:52:45;;;;;;;11.50;3.10;;;;;;;9.79;76.22;100323.46;110218;1267;22229;-59
2023/06/14 02:55:16;;;;;;;12.30;3.50;;;;;;;9.79;76.47;100325.95;110223;1263;23126;-60
2023/06/14 02:57:48;;;;;;;12.90;3.00;;;;;;;9.79;76.80;100327.02;110222;1270;22200;-56
2023/06/14 03:00:20;;;;;;;12.10;3.90;;;;;;;9.82;77.18;100326.92;110229;1271;23249;-59
2023/06/14 03:02:51;;;;;;;11.20;3.60;;;;;;;9.84;77.28;100325.28;110199;1267;22421;-59
2023/06/14 03:05:22;;;;;;;11.20;3.40;;;;;;;9.92;77.22;100320.91;110210;1265;22258;-59
2023/06/14 03:07:53;;;;;;;10.20;3.20;;;;;;;10.00;77.90;100318.98;110147;1271;22286;-58
2023/06/14 03:10:28;;;;;;;11.60;3.30;;;;;;;10.05;78.19;100325.59;110193;1264;22204;-59
2023/06/14 03:13:00;;;;;;;11.10;3.30;;;;;;;10.09;78.42;100320.80;110105;1274;22269;-58
2023/06/14 03:15:33;;;;;;;11.80;3.40;;;;;;;10.12;78.79;100316.23;110216;1271;22340;-57
2023/06/14 03:18:04;;;;;;;11.50;3.60;;;;;;;10.16;78.65;100319.77;110211;1267;22295;-57
2023/06/14 03:20:35;;;;;;;9.30;3.70;;;;;;;10.23;78.65;100321.34;110198;1271;22161;-56
2023/06/14 03:23:07;;;;;;;10.50;3.30;;;;;;;10.30;78.92;100321.35;110171;1271;22179;-59
2023/06/14 03:25:38;;;;;;;11.50;3.80;;;;;;;10.36;79.14;100316.20;110205;1272;23205;-58
2023/06/14 03:28:09;;;;;;;16.00;3.10;;;;;;;10.42;79.05;100312.38;110202;1271;22340;-61
2023/06/14 03:30:40;;;;;;;11.80;3.90;;;;;;;10.49;79.14;100317.02;110225;1278;22157;-58
2023/06/14 03:33:11;;;;;;;12.60;3.80;;;;;;;10.56;79.40;100316.55;110177;1271;22266;-58
2023/06/14 03:35:42;;;;;;;12.70;4.50;;;;;;;10.64;79.44;100321.33;110209;1266;22181;-57
2023/06/14 03:38:13;;;;;;;12.40;4.00;;;;;;;10.70;79.31;100324.97;110221;1265;22276;-60
2023/06/14 03:40:45;;;;;;;13.80;4.60;;;;;;;10.77;79.63;100327.16;110185;1272;22232;-58
2023/06/14 03:43:16;;;;;;;12.80;4.40;;;;;;;10.83;79.63;100327.74;110230;1271;22352;-59
2023/06/14 03:45:46;;;;;;;12.20;3.60;;;;;;;10.87;79.90;100325.26;110209;1278;23193;-58
2023/06/14 03:48:17;;;;;;;12.00;4.10;;;;;;;10.92;79.89;100320.30;110211;1274;22202;-59
2023/06/14 03:50:48;;;;;;;14.40;4.10;;;;;;;10.98;80.01;100326.20;110180;1271;22206;-58
2023/06/14 03:53:20;;;;;;;14.70;3.70;;;;;;;11.04;80.20;100325.72;110186;1265;22850;-56
2023/06/14 03:55:52;;;;;;;13.90;4.70;;;;;;;11.10;80.25;100322.98;110159;1263;22153;-57
2023/06/14 03:58:22;;;;;;;11.10;4.10;;;;;;;11.16;80.39;100318.82;110218;1263;23302;-60
2023/06/14 04:00:53;;;;;;;17.50;5.40;;;;;;;11.20;80.62;100324.83;110162;1278;22186;-58
2023/06/14 04:03:29;;;;;;;10.90;3.90;;;;;;;11.23;80.84;100324.27;110170;1265;22263;-59
2023/06/14 04:06:00;;;;;;;11.50;4.30;;;;;;;11.25;81.17;100329.50;110189;1265;23002;-60
2023/06/14 04:08:31;;;;;;;13.00;4.40;;;;;;;11.25;81.52;100329.59;110181;1270;22317;-56
2023/06/14 04:11:02;;;;;;;12.90;4.90;;;;;;;11.28;81.85;100326.34;110203;1267;22177;-57
2023/06/14 04:13:34;;;;;;;11.20;3.70;;;;;;;11.31;82.13;100329.66;110207;1271;22409;-58
2023/06/14 04:16:06;;;;;;;13.70;5.10;;;;;;;11.33;82.22;100334.02;110213;1267;22157;-60
2023/06/14 04:18:37;;;;;;;12.50;3.80;;;;;;;11.35;82.33;100332.35;110202;1271;22504;-62
2023/06/14 04:21:08;;;;;;;13.20;4.50;;;;;;;11.37;82.31;100334.52;110210;1266;22240;-57
2023/06/14 04:23:44;;;;;;;14.90;4.50;;;;;;;11.43;82.24;100331.83;110194;1267;22210;-56
2023/06/14 04:26:15;;;;;;;17.00;5.20;;;;;;;11.49;82.36;100336.76;110102;1268;23151;-60
2023/06/14 04:28:46;;;;;;;11.60;4.40;;;;;;;11.53;82.18;100344.67;110198;1267;22204;-55
2023/06/14 04:31:18;;;;;;;13.10;5.10;;;;;;;11.61;82.10;100344.48;110180;1264;22382;-59
2023/06/14 04:33:50;;;;;;;13.80;5.20;;;;;;;11.66;82.45;100348.91;110223;1278;23149;-59
2023/06/14 04:36:22;;;;;;;11.20;4.50;;;;;;;11.67;82.10;100348.27;110140;1265;22188;-59
2023/06/14 04:38:54;;;;;;;12.80;4.50;;;;;;;11.71;82.21;100353.92;110178;1267;22165;-61
2023/06/14 04:41:30;;;;;;;14.20;5.00;;;;;;;11.78;82.34;100353.44;110215;1270;22921;-60
2023/06/14 04:44:02;;;;;;;13.60;5.00;;;;;;;11.84;82.65;100356.99;110131;1274;22139;-59
2023/06/14 04:46:43;;;;;;;16.50;5.70;;;;;;;11.91;82.12;100361.11;110182;1271;22380;-60
2023/06/14 04:49:15;;;;;;;11.20;4.50;;;;;;;12.01;82.45;100364.08;110095;1272;22270;-59
2023/06/14 04:51:50;;;;;;;15.60;6.70;;;;;;;12.08;82.49;100360.10;110229;1274;22280;-58
2023/06/14 04:54:21;;;;;;;17.60;5.40;;;;;;;12.16;82.47;100360.13;110225;1271;22131;-59
2023/06/14 04:56:53;;;;;;;15.40;5.70;;;;;;;12.25;82.66;100361.98;110191;1274;22259;-63
2023/06/14 04:59:23;;;;;;;14.90;5.90;;;;;;;12.32;82.65;100363.95;110223;1274;22145;-58
2023/06/14 05:01:56;;;;;;;14.70;4.70;;;;;;;12.38;82.24;100364.64;110173;1271;22206;-60
2023/06/14 05:04:27;;;;;;;17.90;5.50;;;;;;;12.46;82.00;100363.95;110192;1270;22318;-58
2023/06/14 05:06:58;;;;;;;13.80;5.80;;;;;;;12.53;82.20;100362.48;110223;1278;22144;-58
2023/06/14 05:09:29;;;;;;;16.40;7.10;;;;;;;12.60;82.31;100365.10;110178;1264;22137;-56
2023/06/14 05:12:01;;;;;;;18.20;6.90;;;;;;;12.67;82.39;100361.16;110193;1271;22287;-59
2023/06/14 05:14:32;;;;;;;20.50;7.50;;;;;;;12.74;82.12;100361.08;110177;1274;22323;-60
2023/06/14 05:17:03;;;;;;;18.50;7.40;;;;;;;12.81;82.12;100363.20;110179;1271;22156;-60
2023/06/14 05:19:34;;;;;;;18.00;7.60;;;;;;;12.87;82.31;100362.17;110219;1268;22307;-60
2023/06/14 05:22:05;;;;;;;17.10;6.80;;;;;;;12.93;82.19;100356.73;110218;1271;22317;-57
2023/06/14 05:24:37;;;;;;;19.90;7.70;;;;;;;12.98;82.36;100353.38;110192;1271;22177;-59
2023/06/14 05:27:08;;;;;;;21.50;8.30;;;;;;;13.02;82.42;100354.08;110207;1275;22973;-58
2023/06/14 05:29:40;;;;;;;17.90;7.90;;;;;;;13.04;82.29;100356.46;110196;1276;23045;-57
2023/06/14 05:32:11;;;;;;;22.40;9.00;;;;;;;13.07;82.18;100359.56;110201;1274;22783;-58
2023/06/14 05:34:42;;;;;;;19.30;8.70;;;;;;;13.12;82.18;100352.54;110180;1265;22218;-58
2023/06/14 05:37:13;;;;;;;22.10;8.80;;;;;;;13.16;82.11;100353.18;110199;1272;22345;-59
2023/06/14 05:39:44;;;;;;;23.00;9.80;;;;;;;13.21;81.84;100354.45;110222;1278;22687;-56
2023/06/14 05:42:15;;;;;;;21.90;9.90;;;;;;;13.26;82.21;100354.65;110195;1274;22349;-59
2023/06/14 05:44:46;;;;;;;25.60;11.70;;;;;;;13.28;82.26;100358.98;110192;1271;22150;-56
2023/06/14 05:47:17;;;;;;;26.60;11.00;;;;;;;13.34;82.17;100360.92;110178;1277;22841;-58
2023/06/14 05:49:48;;;;;;;27.80;12.10;;;;;;;13.43;82.18;100367.52;110184;1270;22938;-58
2023/06/14 05:52:19;;;;;;;25.60;11.10;;;;;;;13.51;82.24;100367.60;110193;1270;22158;-60
2023/06/14 05:54:50;;;;;;;23.80;10.90;;;;;;;13.62;81.90;100363.91;110184;1278;22653;-56
2023/06/14 05:57:21;;;;;;;27.00;11.40;;;;;;;13.72;81.85;100368.23;110187;1267;22152;-59
2023/06/14 05:59:52;;;;;;;27.20;12.90;;;;;;;13.82;81.66;100367.41;110173;1275;22909;-56
2023/06/14 06:02:22;;;;;;;27.00;11.90;;;;;;;13.91;81.66;100365.48;110184;1271;22842;-58
2023/06/14 06:04:54;;;;;;;31.40;15.10;;;;;;;14.00;81.65;100366.16;110170;1274;22265;-60
2023/06/14 06:07:25;;;;;;;24.60;11.10;;;;;;;14.13;81.73;100368.60;110171;1271;22221;-58
2023/06/14 06:09:55;;;;;;;24.90;11.70;;;;;;;14.22;81.57;100369.23;110207;1264;22217;-59
2023/06/14 06:12:26;;;;;;;28.00;12.50;;;;;;;14.30;81.31;100373.28;110161;1271;22246;-58
2023/06/14 06:14:58;;;;;;;27.00;12.60;;;;;;;14.40;81.21;100373.19;110193;1267;22206;-61
2023/06/14 06:17:29;;;;;;;31.10;14.50;;;;;;;14.49;81.26;100378.19;110245;1274;23187;-59
2023/06/14 06:20:00;;;;;;;25.80;11.90;;;;;;;14.57;81.11;100374.70;110187;1266;22207;-60
2023/06/14 06:22:31;;;;;;;25.80;11.30;;;;;;;14.62;80.82;100375.19;110183;1271;22660;-59
2023/06/14 06:25:02;;;;;;;31.30;13.60;;;;;;;14.66;80.64;100376.48;110180;1271;22197;-58
2023/06/14 06:27:33;;;;;;;24.90;11.90;;;;;;;14.72;80.71;100386.98;110172;1271;22430;-57
2023/06/14 06:30:05;;;;;;;27.10;11.80;;;;;;;14.76;80.69;100385.00;110172;1274;22166;-58
2023/06/14 06:32:36;;;;;;;25.20;11.60;;;;;;;14.79;80.19;100390.44;110161;1271;22195;-60
2023/06/14 06:35:10;;;;;;;27.60;12.30;;;;;;;14.81;80.18;100389.41;110151;1275;22234;-59
2023/06/14 06:37:42;;;;;;;27.80;12.70;;;;;;;14.86;80.43;100387.23;110154;1272;22228;-58
2023/06/14 06:40:13;;;;;;;28.00;12.80;;;;;;;14.88;80.03;100390.79;110149;1271;22315;-58
2023/06/14 06:42:44;;;;;;;24.90;11.10;;;;;;;14.96;80.17;100390.51;110185;1278;22903;-59
2023/06/14 06:45:15;;;;;;;24.70;11.10;;;;;;;15.08;80.17;100389.42;106019;1271;5430379;-59
2023/06/14 06:47:46;;;;;;;24.50;10.90;;;;;;;15.19;79.72;100391.24;110157;1265;22988;-58
2023/06/14 06:50:18;;;;;;;24.40;10.60;;;;;;;15.30;79.57;100386.61;110178;1265;22169;-59
2023/06/14 06:52:50;;;;;;;26.40;10.90;;;;;;;15.38;79.22;100385.24;110171;1278;23038;-58
2023/06/14 06:55:21;;;;;;;23.90;11.70;;;;;;;15.43;78.91;100393.36;110187;1270;22901;-58
2023/06/14 06:57:53;;;;;;;25.90;11.20;;;;;;;15.48;79.03;100393.38;110201;1278;22163;-58
2023/06/14 07:00:24;;;;;;;23.30;11.70;;;;;;;15.53;78.92;100395.70;110158;1275;22272;-59
2023/06/14 07:02:56;;;;;;;23.80;10.90;;;;;;;15.54;78.61;100396.30;110175;1272;22265;-58
2023/06/14 07:05:27;;;;;;;23.00;10.50;;;;;;;15.57;78.35;100398.98;110205;1268;22074;-60
2023/06/14 07:07:58;;;;;;;23.30;11.30;;;;;;;15.64;78.53;100401.48;110174;1274;22310;-56
2023/06/14 07:10:29;;;;;;;24.00;11.10;;;;;;;15.71;78.33;100401.55;110209;1270;22188;-58
2023/06/14 07:13:01;;;;;;;24.80;11.90;;;;;;;15.78;78.10;100401.45;110180;1272;22864;-58
2023/06/14 07:15:31;;;;;;;25.70;10.60;;;;;;;15.86;77.32;100406.36;110163;1274;22118;-59
2023/06/14 07:18:02;;;;;;;23.80;10.30;;;;;;;15.87;77.34;100406.66;110192;1274;22191;-59
2023/06/14 07:20:33;;;;;;;26.80;11.10;;;;;;;15.98;77.17;100409.52;110175;1274;22154;-59
2023/06/14 07:23:04;;;;;;;25.60;10.60;;;;;;;16.09;77.21;100404.55;110196;1264;22202;-59
2023/06/14 07:25:35;;;;;;;25.40;9.80;;;;;;;16.26;76.90;100408.21;110187;1273;22830;-59
2023/06/14 07:28:07;;;;;;;25.80;12.30;;;;;;;16.30;76.48;100414.67;110169;1278;22149;-60
2023/06/14 07:30:38;;;;;;;21.40;10.30;;;;;;;16.30;76.25;100411.75;110178;1278;22118;-60
2023/06/14 07:33:10;;;;;;;21.00;9.70;;;;;;;16.28;75.94;100414.22;110166;1276;22176;-58
2023/06/14 07:35:41;;;;;;;22.90;9.90;;;;;;;16.31;75.79;100416.41;110169;1274;22237;-60
2023/06/14 07:38:12;;;;;;;23.70;11.00;;;;;;;16.33;75.63;100411.79;110199;1275;22216;-57
2023/06/14 07:40:42;;;;;;;22.80;10.70;;;;;;;16.37;75.47;100413.89;110161;1271;22144;-59
2023/06/14 07:43:13;;;;;;;24.80;10.60;;;;;;;16.39;75.46;100411.58;110188;1271;23134;-59
2023/06/14 07:45:45;;;;;;;24.00;11.40;;;;;;;16.46;75.54;100412.14;110178;1267;22149;-60
2023/06/14 07:48:16;;;;;;;22.40;10.40;;;;;;;16.50;75.35;100409.27;110179;1271;23000;-60
2023/06/14 07:50:47;;;;;;;25.20;11.30;;;;;;;16.53;75.24;100408.04;110179;1278;22351;-60
2023/06/14 07:53:18;;;;;;;23.90;11.40;;;;;;;16.56;75.09;100407.52;110188;1263;22160;-59
2023/06/14 07:55:49;;;;;;;24.60;10.90;;;;;;;16.54;74.77;100411.88;110189;1275;22923;-60
2023/06/14 07:58:20;;;;;;;21.10;9.60;;;;;;;16.49;74.71;100405.27;110197;1272;23002;-58
2023/06/14 08:00:51;;;;;;;22.20;9.50;;;;;;;16.50;74.56;100401.23;110193;1272;22170;-60
2023/06/14 08:03:22;;;;;;;17.80;8.10;;;;;;;16.53;74.05;100401.13;110171;1274;22155;-56
2023/06/14 08:05:53;;;;;;;18.90;8.30;;;;;;;16.60;73.97;100402.65;110176;1274;22164;-61
2023/06/14 08:08:24;;;;;;;18.70;8.50;;;;;;;16.68;73.80;100403.40;110204;1273;22186;-59
2023/06/14 08:10:55;;;;;;;18.50;7.50;;;;;;;16.75;73.44;100402.30;110197;1274;22196;-62
2023/06/14 08:13:26;;;;;;;20.10;7.90;;;;;;;16.81;73.22;100403.86;110209;1271;22177;-60
2023/06/14 08:15:58;;;;;;;18.10;7.70;;;;;;;16.90;73.23;100405.61;110221;1272;23113;-60
2023/06/14 08:18:30;;;;;;;17.70;6.60;;;;;;;16.97;73.08;100401.64;110195;1271;22270;-58
2023/06/14 08:21:01;;;;;;;18.50;8.00;;;;;;;17.07;72.69;100403.14;110158;1269;22318;-62
2023/06/14 08:23:32;;;;;;;19.90;8.00;;;;;;;17.10;72.68;100400.35;110190;1268;23421;-59
2023/06/14 08:26:04;;;;;;;21.20;9.00;;;;;;;17.13;72.62;100402.80;110189;1272;22167;-59
2023/06/14 08:28:35;;;;;;;20.30;7.90;;;;;;;17.16;72.60;100400.98;110184;1271;22380;-60
2023/06/14 08:31:06;;;;;;;17.70;7.70;;;;;;;17.19;72.38;100400.92;110215;1264;22163;-61
2023/06/14 08:33:37;;;;;;;19.30;8.70;;;;;;;17.16;71.95;100397.86;110211;1272;23105;-59
2023/06/14 08:36:08;;;;;;;22.20;8.00;;;;;;;17.20;72.05;100401.23;110188;1268;22907;-58
2023/06/14 08:38:39;;;;;;;19.70;7.20;;;;;;;17.26;71.90;100402.32;110221;1267;22170;-59
2023/06/14 08:41:13;;;;;;;15.10;6.30;;;;;;;17.30;71.48;100401.48;110198;1274;22156;-58
2023/06/14 08:43:44;;;;;;;15.50;6.40;;;;;;;17.29;71.25;100402.05;110184;1274;22855;-60
2023/06/14 08:46:19;;;;;;;16.50;5.90;;;;;;;17.29;70.99;100406.05;110204;1270;22383;-59
2023/06/14 08:48:52;;;;;;;14.80;5.10;;;;;;;17.37;71.13;100403.38;110205;1278;22255;-60
2023/06/14 08:51:26;;;;;;;15.90;5.90;;;;;;;17.46;70.72;100399.80;110190;1273;22240;-61
2023/06/14 08:53:58;;;;;;;14.00;5.10;;;;;;;17.57;70.17;100399.02;110202;1274;22128;-58
2023/06/14 08:56:30;;;;;;;14.70;5.00;;;;;;;17.62;69.60;100401.61;110217;1276;22138;-59
2023/06/14 08:59:02;;;;;;;14.70;4.60;;;;;;;17.67;69.57;100401.48;110215;1274;22566;-56
2023/06/14 09:01:39;;;;;;;16.80;5.40;;;;;;;17.70;69.07;100403.29;110198;1265;22820;-56
2023/06/14 09:04:11;;;;;;;12.00;3.40;;;;;;;17.75;69.21;100400.89;110194;1271;23578;-59
2023/06/14 09:06:46;;;;;;;12.50;3.70;;;;;;;17.78;68.42;100404.31;110236;1278;22181;-59
2023/06/14 09:09:17;;;;;;;11.50;3.40;;;;;;;17.80;68.41;100403.52;110227;1273;22182;-60
2023/06/14 09:11:49;;;;;;;9.60;2.50;;;;;;;17.86;67.58;100411.39;110206;1272;22213;-60
2023/06/14 09:14:20;;;;;;;10.90;2.40;;;;;;;17.88;67.25;100405.37;110195;1274;22932;-60
2023/06/14 09:16:55;;;;;;;9.60;2.00;;;;;;;17.89;66.90;100407.46;110179;1274;22250;-60
2023/06/14 09:19:27;;;;;;;12.40;2.60;;;;;;;17.90;66.42;100407.24;110211;1264;22164;-59
2023/06/14 09:21:58;;;;;;;16.00;2.60;;;;;;;17.85;66.91;100407.14;110176;1274;23027;-61
2023/06/14 09:24:29;;;;;;;9.60;2.40;;;;;;;17.77;67.59;100412.02;110208;1271;22568;-59
2023/06/14 09:27:00;;;;;;;8.80;2.00;;;;;;;17.69;67.27;100414.64;110214;1274;22234;-60
2023/06/14 09:29:31;;;;;;;7.50;2.80;;;;;;;17.58;67.28;100413.70;110199;1273;22415;-57
2023/06/14 09:32:02;;;;;;;10.50;1.90;;;;;;;17.52;67.15;100413.42;110194;1272;22173;-59
2023/06/14 09:34:34;;;;;;;12.30;2.30;;;;;;;17.49;67.36;100410.05;110219;1262;23137;-58
2023/06/14 09:37:06;;;;;;;5.00;1.30;;;;;;;17.51;67.31;100414.98;110205;1278;22488;-59
2023/06/14 09:39:47;;;;;;;6.90;1.80;;;;;;;17.51;67.59;100414.92;110194;1274;22404;-60
2023/06/14 09:42:20;;;;;;;5.80;1.60;;;;;;;17.41;67.80;100415.73;110096;1273;22155;-63
2023/06/14 09:44:52;;;;;;;10.00;2.20;;;;;;;17.34;68.03;100414.43;110190;1272;22218;-59
2023/06/14 09:47:24;;;;;;;8.20;2.00;;;;;;;17.32;68.28;100414.55;110154;1271;22257;-59
2023/06/14 09:49:56;;;;;;;7.60;1.70;;;;;;;17.32;68.09;100416.75;110153;1278;22140;-57
2023/06/14 09:52:29;;;;;;;8.50;1.80;;;;;;;17.34;68.26;100414.95;110177;1270;22382;-59
2023/06/14 09:55:06;;;;;;;10.30;2.10;;;;;;;17.38;68.28;100412.92;110179;1278;22677;-60
2023/06/14 09:57:38;;;;;;;5.80;1.90;;;;;;;17.40;67.71;100418.80;110162;1278;22207;-58
2023/06/14 10:00:12;;;;;;;8.90;1.90;;;;;;;17.43;67.18;100412.78;110162;1272;22727;-60
2023/06/14 10:02:50;;;;;;;9.80;1.90;;;;;;;17.50;67.73;100407.80;110162;1266;22243;-61
2023/06/14 10:05:22;;;;;;;11.40;2.10;;;;;;;17.62;67.79;100409.15;110229;1274;22925;-59
2023/06/14 10:08:19;;;;;;;8.40;1.90;;;;;;;17.78;67.57;100412.16;110151;1273;22220;-62
2023/06/14 10:10:50;;;;;;;8.10;2.10;;;;;;;17.88;66.90;100413.22;110221;1260;22157;-59
2023/06/14 10:13:22;;;;;;;11.60;1.70;;;;;;;18.02;67.07;100413.27;110166;1272;22636;-61
2023/06/14 10:16:01;;;;;;;7.70;1.80;;;;;;;18.08;65.59;100410.69;110173;1274;22353;-59
2023/06/14 10:18:40;;;;;;;7.80;1.70;;;;;;;18.16;65.70;100408.66;110175;1270;22310;-59
2023/06/14 10:21:39;;;;;;;7.90;1.90;;;;;;;18.28;65.22;100405.67;110098;1275;22335;-60
2023/06/14 10:24:13;;;;;;;8.20;2.30;;;;;;;18.36;65.00;100407.48;110163;1273;22192;-60
2023/06/14 10:26:54;;;;;;;7.10;1.60;;;;;;;18.46;64.37;100406.86;110197;1270;22342;-61
2023/06/14 10:29:25;;;;;;;8.30;1.90;;;;;;;18.47;64.25;100404.73;110178;1272;22187;-61
2023/06/14 10:32:00;;;;;;;9.50;1.80;;;;;;;18.52;64.06;100408.13;110141;1272;22869;-59
2023/06/14 10:34:32;;;;;;;6.30;1.60;;;;;;;18.55;63.53;100408.24;110175;1272;22357;-58
2023/06/14 10:37:08;;;;;;;7.60;1.90;;;;;;;18.56;63.61;100403.81;110191;1272;22179;-59
2023/06/14 10:39:41;;;;;;;10.40;1.90;;;;;;;18.60;63.67;100403.02;110176;1278;22188;-59
2023/06/14 10:42:13;;;;;;;8.30;1.60;;;;;;;18.64;63.71;100400.14;110183;1274;22148;-59
2023/06/14 10:44:46;;;;;;;10.30;1.90;;;;;;;18.71;63.71;100401.08;110199;1276;22992;-60
2023/06/14 10:47:29;;;;;;;9.20;1.80;;;;;;;18.73;62.91;100403.13;110209;1272;22394;-57
2023/06/14 10:50:06;;;;;;;7.80;1.70;;;;;;;18.74;62.51;100406.80;110155;1276;22190;-59
2023/06/14 10:52:39;;;;;;;9.10;2.50;;;;;;;18.73;62.51;100405.06;110200;1273;22991;-59
2023/06/14 10:55:14;;;;;;;8.20;1.70;;;;;;;18.70;61.86;100400.16;110165;1272;22132;-58
2023/06/14 10:57:47;;;;;;;7.90;1.80;;;;;;;18.63;61.74;100401.85;110113;1275;22634;-59
2023/06/14 11:00:22;;;;;;;7.40;1.60;;;;;;;18.55;61.78;100400.16;110185;1271;22198;-59
2023/06/14 11:03:13;;;;;;;11.90;2.60;;;;;;;18.54;62.66;100399.63;110175;1276;22172;-60
2023/06/14 11:05:52;;;;;;;8.10;1.70;;;;;;;18.56;62.79;100400.57;110204;1273;22175;-57
2023/06/14 11:08:40;;;;;;;6.90;1.80;;;;;;;18.61;62.22;100395.28;110125;1276;22191;-60
2023/06/14 11:11:13;;;;;;;5.60;1.50;;;;;;;18.69;61.65;100395.34;110178;1268;22276;-59
2023/06/14 11:13:45;;;;;;;8.00;1.90;;;;;;;18.77;61.35;100390.27;110220;1276;22198;-59
2023/06/14 11:16:18;;;;;;;6.60;1.80;;;;;;;18.86;61.24;100391.64;110211;1264;22426;-59
2023/06/14 11:18:50;;;;;;;9.90;1.80;;;;;;;18.98;62.02;100391.04;110259;1278;23109;-59
2023/06/14 11:21:21;;;;;;;5.50;1.50;;;;;;;19.10;61.43;100386.45;110222;1276;22376;-60
2023/06/14 11:23:56;;;;;;;7.60;1.60;;;;;;;19.22;60.84;100390.30;110189;1276;23053;-59
2023/06/14 11:26:30;;;;;;;9.60;1.50;;;;;;;19.33;60.66;100385.28;110207;1276;22421;-58
2023/06/14 11:29:02;;;;;;;6.70;1.70;;;;;;;19.43;60.34;100381.38;109991;1265;22194;-60
2023/06/14 11:31:33;;;;;;;8.60;1.50;;;;;;;19.50;60.18;100379.06;109967;1273;23309;-59
2023/06/14 11:34:06;;;;;;;7.30;1.70;;;;;;;19.61;59.67;100379.56;110015;1280;22661;-58